Time;durP1;ratioP1;P1;durP2;ratioP2;P2;SDS_P1;SDS_P2;PMS_P1;PMS_P2;Temp;Humidity;BMP_temperature;BMP_pressure;BME280_temperature;BME280_humidity;BME280_pressure;Samples;Min_cycle;Max_cycle;Signal;HPM_P1;HPM_P2
2022/07/20 00:00:28;;;;;;;8.60;0.73;;;22.30;65.60;;;;;;4785073;29;20489;-89
2022/07/20 00:02:55;;;;;;;5.85;0.95;;;22.30;66.20;;;;;;4766416;29;20593;-89
2022/07/20 00:05:22;;;;;;;7.10;1.33;;;22.20;66.10;;;;;;4770395;29;20408;-89
2022/07/20 00:07:50;;;;;;;17.23;2.65;;;22.20;65.80;;;;;;4755160;30;20047;-89
2022/07/20 00:13:04;;;;;;;3.63;0.80;;;22.10;66.90;;;;;;4789003;29;20055;-89
2022/07/20 00:15:31;;;;;;;4.30;1.20;;;22.10;68.20;;;;;;4770338;30;20079;-88
2022/07/20 00:17:59;;;;;;;5.03;0.63;;;22.00;68.20;;;;;;4771638;29;20054;-89
2022/07/20 00:20:27;;;;;;;5.75;1.08;;;22.10;68.30;;;;;;4770707;30;20147;-89
2022/07/20 00:22:56;;;;;;;5.45;1.45;;;22.00;68.40;;;;;;4771528;29;20054;-89
2022/07/20 00:25:25;;;;;;;5.80;1.20;;;22.00;69.50;;;;;;4788984;29;20047;-89
2022/07/20 00:27:53;;;;;;;5.32;1.17;;;22.00;69.10;;;;;;4771902;29;20047;-90
2022/07/20 00:30:20;;;;;;;2.95;0.80;;;21.90;69.70;;;;;;4773637;30;20450;-89
2022/07/20 00:32:48;;;;;;;3.33;0.80;;;21.80;69.40;;;;;;4789826;29;20055;-89
2022/07/20 00:35:16;;;;;;;5.07;1.08;;;21.80;69.60;;;;;;4774690;30;20082;-90
2022/07/20 00:37:44;;;;;;;4.65;1.17;;;21.80;68.90;;;;;;4773618;30;20515;-89
2022/07/20 00:40:13;;;;;;;7.40;1.13;;;21.80;69.20;;;;;;4771758;30;20090;-90
2022/07/20 00:42:41;;;;;;;4.65;1.23;;;21.80;70.60;;;;;;4767312;29;20134;-89
2022/07/20 00:45:10;;;;;;;4.10;1.10;;;21.70;69.40;;;;;;4802537;29;20055;-89
2022/07/20 00:47:37;;;;;;;3.88;1.17;;;21.70;69.20;;;;;;4783751;29;20063;-89
2022/07/20 00:50:06;;;;;;;2.75;1.23;;;21.70;69.80;;;;;;4755568;30;20055;-89
2022/07/20 00:52:34;;;;;;;6.65;1.13;;;21.70;69.30;;;;;;4756995;30;20051;-89
2022/07/20 00:55:03;;;;;;;5.63;0.82;;;21.70;69.70;;;;;;4770736;29;20085;-89
2022/07/20 00:57:31;;;;;;;5.00;0.98;;;21.60;69.20;;;;;;4781500;30;20498;-89
2022/07/20 00:59:59;;;;;;;3.55;0.98;;;21.60;69.70;;;;;;4747052;29;20061;-89
2022/07/20 01:02:27;;;;;;;4.00;1.25;;;21.50;69.70;;;;;;4749120;29;20071;-89
2022/07/20 01:04:55;;;;;;;9.27;1.10;;;21.50;70.00;;;;;;4771225;30;20047;-89
2022/07/20 01:07:22;;;;;;;4.00;0.85;;;21.50;70.60;;;;;;4765070;30;20496;-89
2022/07/20 01:09:50;;;;;;;7.97;0.80;;;21.50;69.90;;;;;;4781833;30;20047;-89
2022/07/20 01:12:18;;;;;;;4.82;0.90;;;21.40;69.00;;;;;;4781352;29;20055;-88
2022/07/20 01:14:45;;;;;;;2.92;0.60;;;21.30;68.90;;;;;;4762815;30;20043;-89
2022/07/20 01:17:13;;;;;;;4.20;1.38;;;21.30;68.80;;;;;;4784351;29;20055;-90
2022/07/20 01:19:41;;;;;;;4.85;0.88;;;21.20;68.30;;;;;;4766629;29;20577;-89
2022/07/20 01:22:08;;;;;;;3.92;0.98;;;21.20;69.60;;;;;;4775635;29;20104;-90
2022/07/20 01:24:36;;;;;;;5.50;1.52;;;21.30;69.00;;;;;;4764372;30;20490;-89
2022/07/20 01:27:05;;;;;;;5.55;0.73;;;21.20;68.50;;;;;;4761986;29;20059;-89
2022/07/20 01:29:33;;;;;;;2.55;0.70;;;21.20;68.10;;;;;;4784129;29;20043;-89
2022/07/20 01:32:00;;;;;;;5.40;1.00;;;21.20;68.10;;;;;;4761357;29;20055;-90
2022/07/20 01:34:28;;;;;;;1.70;0.73;;;21.20;68.00;;;;;;4763197;30;20062;-90
2022/07/20 01:36:55;;;;;;;3.08;0.70;;;21.20;69.10;;;;;;4755098;29;20057;-90
2022/07/20 01:39:23;;;;;;;4.07;0.90;;;21.20;69.40;;;;;;4770278;29;20063;-91
2022/07/20 01:41:53;;;;;;;4.15;0.80;;;21.20;69.60;;;;;;4798558;29;20047;-90
2022/07/20 01:44:21;;;;;;;3.65;1.17;;;21.20;69.70;;;;;;4768035;30;20091;-90
2022/07/20 01:46:50;;;;;;;3.28;0.98;;;21.10;68.70;;;;;;4753006;29;20079;-90
2022/07/20 01:49:19;;;;;;;4.47;0.85;;;21.10;69.00;;;;;;4743813;29;20690;-89
2022/07/20 01:51:46;;;;;;;4.72;0.90;;;21.10;69.10;;;;;;4760632;30;20055;-89
2022/07/20 01:54:14;;;;;;;2.53;0.80;;;20.90;69.10;;;;;;4765635;30;20058;-89
2022/07/20 01:56:42;;;;;;;3.90;1.05;;;21.00;69.10;;;;;;4760227;30;20043;-89
2022/07/20 01:59:10;;;;;;;3.72;1.00;;;20.90;69.40;;;;;;4784037;29;20493;-89
2022/07/20 02:01:38;;;;;;;4.80;1.02;;;21.00;69.20;;;;;;4764860;29;20112;-90
2022/07/20 02:04:06;;;;;;;2.17;0.70;;;20.90;69.60;;;;;;4766190;30;20051;-90
2022/07/20 02:06:34;;;;;;;5.32;1.30;;;20.90;69.90;;;;;;4766080;30;20066;-90
2022/07/20 02:09:01;;;;;;;2.58;1.08;;;20.80;69.80;;;;;;4765065;29;20150;-90
2022/07/20 02:11:30;;;;;;;5.20;1.33;;;20.80;70.30;;;;;;4748348;30;20087;-89
2022/07/20 02:13:57;;;;;;;5.07;1.25;;;20.80;70.30;;;;;;4769826;30;20069;-90
2022/07/20 02:16:25;;;;;;;2.95;0.88;;;20.80;69.70;;;;;;4787152;30;20112;-90
2022/07/20 02:18:57;;;;;;;4.40;1.80;;;20.80;69.70;;;;;;4784749;29;20051;-90
2022/07/20 02:21:26;;;;;;;3.53;1.10;;;20.80;69.50;;;;;;4771079;30;20067;-90
2022/07/20 02:23:54;;;;;;;3.55;0.98;;;20.80;70.70;;;;;;4770266;29;20071;-90
2022/07/20 02:26:22;;;;;;;3.95;1.30;;;20.80;69.70;;;;;;4772581;30;20143;-90
2022/07/20 02:28:49;;;;;;;3.70;1.25;;;20.70;70.40;;;;;;4790723;29;20051;-89
2022/07/20 02:31:18;;;;;;;6.03;0.90;;;20.70;70.50;;;;;;4775417;30;20039;-89
2022/07/20 02:33:46;;;;;;;4.53;1.25;;;20.70;70.60;;;;;;4772127;30;20154;-89
2022/07/20 02:36:14;;;;;;;2.50;1.08;;;20.70;70.50;;;;;;4772940;30;20049;-89
2022/07/20 02:38:42;;;;;;;4.38;0.82;;;20.60;71.20;;;;;;4777466;30;20055;-89
2022/07/20 02:41:10;;;;;;;3.85;1.38;;;20.60;71.70;;;;;;4773951;30;20047;-89
2022/07/20 02:43:38;;;;;;;6.82;1.02;;;20.50;71.10;;;;;;4788551;30;20138;-90
2022/07/20 02:46:06;;;;;;;4.72;1.17;;;20.50;71.70;;;;;;4791353;29;20148;-90
2022/07/20 02:48:34;;;;;;;4.63;0.90;;;20.50;72.00;;;;;;4761511;30;20051;-90
2022/07/20 02:51:01;;;;;;;6.15;1.25;;;20.50;71.80;;;;;;4763917;30;20065;-90
2022/07/20 02:53:29;;;;;;;2.65;1.02;;;20.40;72.10;;;;;;4768593;30;20043;-90
2022/07/20 02:55:58;;;;;;;6.60;1.38;;;20.50;72.50;;;;;;4770679;30;20419;-90
2022/07/20 02:58:25;;;;;;;5.45;1.23;;;20.50;73.10;;;;;;4790753;29;20386;-90
2022/07/20 03:00:53;;;;;;;7.03;1.65;;;20.40;72.70;;;;;;4761635;30;20051;-90
2022/07/20 03:03:21;;;;;;;7.80;1.45;;;20.40;72.90;;;;;;4771362;30;20048;-91
2022/07/20 03:05:48;;;;;;;8.02;1.42;;;20.40;73.30;;;;;;4774608;30;20051;-91
2022/07/20 03:08:16;;;;;;;3.30;1.23;;;20.40;73.50;;;;;;4767659;30;20048;-91
2022/07/20 03:10:44;;;;;;;6.45;1.55;;;20.40;72.90;;;;;;4773493;29;20155;-90
2022/07/20 03:13:11;;;;;;;5.97;1.20;;;20.40;72.80;;;;;;4763481;30;20052;-90
2022/07/20 03:15:39;;;;;;;8.88;1.40;;;20.40;73.60;;;;;;4760066;30;20054;-89
2022/07/20 03:18:06;;;;;;;2.95;1.10;;;20.40;73.60;;;;;;4784627;30;20072;-89
2022/07/20 03:20:34;;;;;;;5.05;1.10;;;20.30;73.60;;;;;;4781619;29;20062;-89
2022/07/20 03:23:03;;;;;;;5.25;1.40;;;20.30;73.50;;;;;;4762726;30;20048;-89
2022/07/20 03:25:31;;;;;;;3.45;1.42;;;20.30;74.20;;;;;;4767708;30;20417;-90
2022/07/20 03:27:59;;;;;;;3.75;1.00;;;20.30;73.80;;;;;;4773951;29;20066;-89
2022/07/20 03:30:28;;;;;;;7.65;1.75;;;20.30;74.20;;;;;;4785614;29;20051;-90
2022/07/20 03:32:56;;;;;;;7.85;1.75;;;20.20;74.30;;;;;;4773912;30;20055;-91
2022/07/20 03:35:25;;;;;;;5.82;1.33;;;20.30;74.50;;;;;;4774653;29;20146;-90
2022/07/20 03:37:53;;;;;;;4.65;1.48;;;20.30;75.60;;;;;;4772311;30;20142;-89
2022/07/20 03:40:20;;;;;;;8.23;1.50;;;20.20;76.20;;;;;;4772480;30;20073;-89
2022/07/20 03:42:48;;;;;;;6.50;1.60;;;20.20;76.00;;;;;;4788624;29;20051;-86
2022/07/20 03:45:15;;;;;;;11.63;1.80;;;20.20;76.20;;;;;;4759011;30;20139;-86
2022/07/20 03:47:43;;;;;;;8.60;1.60;;;20.30;75.80;;;;;;4785622;29;20569;-86
2022/07/20 03:50:11;;;;;;;9.88;2.40;;;20.30;76.00;;;;;;4756166;30;20051;-86
2022/07/20 03:52:39;;;;;;;12.90;2.30;;;20.30;75.30;;;;;;4758098;30;20054;-86
2022/07/20 03:55:07;;;;;;;14.05;2.40;;;20.30;75.90;;;;;;4769825;30;20379;-87
2022/07/20 03:57:34;;;;;;;8.60;2.10;;;20.40;76.20;;;;;;4773505;30;20485;-87
2022/07/20 04:00:02;;;;;;;11.63;2.00;;;20.40;76.50;;;;;;4758274;30;20055;-87
2022/07/20 04:02:30;;;;;;;8.00;1.88;;;20.40;75.90;;;;;;4787706;29;20043;-87
2022/07/20 04:04:58;;;;;;;9.88;2.08;;;20.40;74.90;;;;;;4773755;30;20150;-87
2022/07/20 04:07:26;;;;;;;8.07;1.90;;;20.50;75.00;;;;;;4760139;30;20054;-86
2022/07/20 04:09:53;;;;;;;7.13;2.08;;;20.50;75.70;;;;;;4775002;29;20600;-87
2022/07/20 04:12:23;;;;;;;8.32;2.28;;;20.50;75.20;;;;;;4774397;30;20052;-88
2022/07/20 04:14:52;;;;;;;8.85;2.47;;;20.50;75.90;;;;;;4766052;30;20048;-87
2022/07/20 04:17:20;;;;;;;6.03;1.92;;;20.60;75.20;;;;;;4768177;29;20058;-86
2022/07/20 04:19:48;;;;;;;7.30;2.55;;;20.60;74.00;;;;;;4769133;30;20065;-86
2022/07/20 04:22:16;;;;;;;12.27;2.25;;;20.60;73.60;;;;;;4771323;30;20394;-86
2022/07/20 04:24:43;;;;;;;9.57;2.33;;;20.70;73.60;;;;;;4762335;29;20048;-86
2022/07/20 04:27:11;;;;;;;11.13;2.33;;;20.70;74.00;;;;;;4793572;29;20093;-85
2022/07/20 04:29:38;;;;;;;7.82;2.15;;;20.90;74.80;;;;;;4768521;29;20600;-86
2022/07/20 04:32:06;;;;;;;8.27;2.10;;;20.90;73.90;;;;;;4768078;29;20047;-84
2022/07/20 04:34:34;;;;;;;4.57;1.90;;;21.00;73.20;;;;;;4757948;29;20055;-85
2022/07/20 04:37:06;;;;;;;6.50;2.22;;;21.00;72.80;;;;;;4771086;30;20082;-85
2022/07/20 04:39:34;;;;;;;9.43;2.72;;;21.10;72.80;;;;;;4766813;30;20715;-85
2022/07/20 04:42:01;;;;;;;7.68;2.30;;;21.20;72.70;;;;;;4769623;30;20056;-84
2022/07/20 04:44:29;;;;;;;13.27;2.53;;;21.20;72.30;;;;;;4751444;30;20052;-84
2022/07/20 04:46:57;;;;;;;17.73;2.88;;;21.30;72.30;;;;;;4766310;29;20052;-85
2022/07/20 04:49:25;;;;;;;11.27;2.45;;;21.30;72.60;;;;;;4767443;30;20396;-83
2022/07/20 04:51:52;;;;;;;11.00;2.70;;;21.40;72.30;;;;;;4785020;29;20083;-84
2022/07/20 04:54:21;;;;;;;6.00;2.40;;;21.50;71.00;;;;;;4770317;30;20117;-84
2022/07/20 04:56:49;;;;;;;8.52;2.25;;;21.40;69.10;;;;;;4769380;30;20059;-84
2022/07/20 04:59:17;;;;;;;7.85;2.10;;;21.50;69.10;;;;;;4767967;30;20052;-83
2022/07/20 05:01:44;;;;;;;3.85;2.13;;;21.60;69.00;;;;;;4754543;30;20590;-85
2022/07/20 05:04:12;;;;;;;7.05;1.88;;;21.80;68.90;;;;;;4751800;29;20719;-84
2022/07/20 05:06:40;;;;;;;4.85;1.48;;;21.90;67.30;;;;;;4745802;30;20828;-85
2022/07/20 05:09:10;;;;;;;8.23;2.65;;;22.00;66.50;;;;;;4749322;30;20076;-84
2022/07/20 05:11:38;;;;;;;4.63;1.63;;;22.20;66.10;;;;;;4748751;30;20409;-83
2022/07/20 05:14:06;;;;;;;3.95;2.00;;;22.20;63.80;;;;;;4731188;30;22499;-83
2022/07/20 05:16:33;;;;;;;6.65;1.60;;;22.40;63.50;;;;;;4774313;29;20062;-82
2022/07/20 05:19:01;;;;;;;3.28;1.80;;;22.50;63.30;;;;;;4740567;30;20532;-83
2022/07/20 05:21:28;;;;;;;6.60;1.98;;;22.70;66.10;;;;;;4738130;30;20103;-83
2022/07/20 05:23:56;;;;;;;5.30;1.65;;;22.90;62.30;;;;;;4723979;30;20055;-82
2022/07/20 05:26:23;;;;;;;5.05;1.85;;;23.00;62.90;;;;;;4769558;29;20086;-82
2022/07/20 05:28:51;;;;;;;3.13;1.67;;;23.20;64.00;;;;;;4716925;30;21061;-81
2022/07/20 05:31:19;;;;;;;8.45;2.53;;;23.30;61.00;;;;;;4764091;29;20585;-82
2022/07/20 05:33:47;;;;;;;7.40;1.98;;;23.50;60.30;;;;;;4763864;29;20059;-82
2022/07/20 05:36:15;;;;;;;6.20;2.20;;;23.60;60.80;;;;;;4732134;30;20429;-81
2022/07/20 05:38:42;;;;;;;7.35;1.88;;;23.80;59.90;;;;;;4748764;29;20061;-81
2022/07/20 05:41:10;;;;;;;6.15;1.65;;;23.90;58.50;;;;;;4714348;30;20089;-82
2022/07/20 05:43:37;;;;;;;5.82;2.17;;;24.00;59.00;;;;;;4730348;29;20801;-81
2022/07/20 05:46:04;;;;;;;7.28;1.40;;;24.20;58.50;;;;;;4734485;29;20615;-83
2022/07/20 05:48:32;;;;;;;3.38;1.67;;;24.40;57.80;;;;;;4767295;29;20082;-81
2022/07/20 05:51:00;;;;;;;5.30;1.67;;;24.50;58.30;;;;;;4733498;29;20440;-81
2022/07/20 05:53:27;;;;;;;7.43;1.58;;;24.60;56.40;;;;;;4735196;29;20062;-80
2022/07/20 05:55:55;;;;;;;4.00;1.80;;;24.70;55.50;;;;;;4744757;29;20066;-83
2022/07/20 05:58:22;;;;;;;6.45;2.00;;;25.00;56.30;;;;;;4757885;29;20822;-83
2022/07/20 06:00:49;;;;;;;3.65;1.58;;;25.10;55.00;;;;;;4732403;29;20056;-86
2022/07/20 06:03:17;;;;;;;4.13;1.50;;;25.20;54.10;;;;;;4773621;29;20144;-82
2022/07/20 06:05:45;;;;;;;3.17;1.40;;;25.30;54.20;;;;;;4744994;29;20059;-81
2022/07/20 06:08:12;;;;;;;4.97;1.58;;;25.40;54.10;;;;;;4746093;30;20055;-81
2022/07/20 06:10:39;;;;;;;6.10;1.55;;;25.60;53.30;;;;;;4773527;29;20513;-82
2022/07/20 06:13:07;;;;;;;5.78;1.73;;;25.70;52.80;;;;;;4759921;30;20070;-88
2022/07/20 06:15:37;;;;;;;1.85;1.13;;;25.90;53.00;;;;;;4745647;30;20063;-87
2022/07/20 06:18:04;;;;;;;3.80;1.30;;;26.00;53.10;;;;;;4761507;29;20678;-81
2022/07/20 06:20:31;;;;;;;3.10;1.55;;;26.20;52.70;;;;;;4738393;30;20150;-83
2022/07/20 06:22:59;;;;;;;9.48;1.45;;;26.40;52.80;;;;;;4736498;29;20058;-80
2022/07/20 06:25:27;;;;;;;3.95;1.67;;;26.50;52.00;;;;;;4719118;29;20066;-82
2022/07/20 06:27:57;;;;;;;2.97;1.52;;;26.70;52.40;;;;;;4755297;29;20205;-82
2022/07/20 06:30:25;;;;;;;5.00;1.27;;;26.80;51.90;;;;;;4729152;29;20055;-84
2022/07/20 06:32:52;;;;;;;4.35;1.50;;;27.00;52.00;;;;;;4748978;29;20055;-82
2022/07/20 06:35:21;;;;;;;5.55;1.30;;;27.00;51.10;;;;;;4775868;29;20051;-79
2022/07/20 06:37:49;;;;;;;5.75;1.30;;;27.10;50.40;;;;;;4739967;30;20051;-82
2022/07/20 06:40:16;;;;;;;2.40;1.00;;;27.20;50.30;;;;;;4743711;30;20051;-81
2022/07/20 06:42:44;;;;;;;6.43;1.27;;;27.50;50.20;;;;;;4757251;30;20420;-84
2022/07/20 06:45:11;;;;;;;3.83;1.20;;;27.60;49.80;;;;;;4746665;30;20084;-82
2022/07/20 06:47:39;;;;;;;6.28;1.83;;;27.70;49.00;;;;;;4754438;29;20051;-82
2022/07/20 06:50:07;;;;;;;4.82;1.50;;;27.80;49.90;;;;;;4732168;29;20762;-80
2022/07/20 06:52:35;;;;;;;5.30;0.90;;;27.90;49.30;;;;;;4747204;29;20428;-83
2022/07/20 06:55:04;;;;;;;4.63;1.33;;;28.10;49.20;;;;;;4740988;29;20066;-88
2022/07/20 06:57:32;;;;;;;3.42;1.30;;;28.20;48.70;;;;;;4755970;30;20083;-88
2022/07/20 06:59:59;;;;;;;1.75;1.00;;;28.30;48.90;;;;;;4728143;30;20206;-83
2022/07/20 07:02:27;;;;;;;4.13;0.90;;;28.40;49.60;;;;;;4737135;30;20056;-89
2022/07/20 07:04:54;;;;;;;3.40;0.80;;;28.40;48.70;;;;;;4751067;30;20415;-86
2022/07/20 07:07:22;;;;;;;3.70;1.08;;;28.50;48.00;;;;;;4738484;30;20080;-88
2022/07/20 07:09:49;;;;;;;6.00;1.50;;;28.60;46.90;;;;;;4736472;30;20060;-85
2022/07/20 07:12:17;;;;;;;2.33;0.70;;;28.70;47.60;;;;;;4752788;30;20305;-88
2022/07/20 07:14:44;;;;;;;3.88;1.13;;;28.80;46.70;;;;;;4738727;30;20062;-86
2022/07/20 07:17:12;;;;;;;3.00;0.93;;;28.80;45.80;;;;;;4717206;30;20060;-86
2022/07/20 07:19:40;;;;;;;4.90;1.10;;;29.00;46.70;;;;;;4733463;30;20061;-86
2022/07/20 07:22:08;;;;;;;3.35;1.25;;;29.10;47.10;;;;;;4715480;30;20055;-82
2022/07/20 07:24:36;;;;;;;4.50;1.13;;;29.20;46.20;;;;;;4748808;30;20892;-87
2022/07/20 07:27:03;;;;;;;7.30;1.10;;;29.30;45.60;;;;;;4738052;30;20066;-88
2022/07/20 07:29:31;;;;;;;2.83;0.80;;;29.30;45.50;;;;;;4733194;30;20056;-86
2022/07/20 07:32:06;;;;;;;3.15;0.73;;;29.40;45.20;;;;;;4753097;30;20052;-90
2022/07/20 07:34:34;;;;;;;4.18;0.50;;;29.40;45.00;;;;;;4741151;30;22358;-86
2022/07/20 07:37:01;;;;;;;4.07;0.50;;;29.50;45.40;;;;;;4748143;29;20055;-86
2022/07/20 07:39:28;;;;;;;4.65;1.38;;;29.70;44.60;;;;;;4791532;29;20075;-88
2022/07/20 07:41:56;;;;;;;4.57;0.77;;;29.90;44.90;;;;;;4758050;30;20063;-88
2022/07/20 07:44:23;;;;;;;2.58;0.70;;;29.90;44.10;;;;;;4765185;30;20055;-88
2022/07/20 07:46:51;;;;;;;4.35;0.68;;;29.90;45.10;;;;;;4766975;30;20493;-88
2022/07/20 07:49:19;;;;;;;4.43;0.60;;;30.00;44.90;;;;;;4763089;30;20062;-88
2022/07/20 07:51:46;;;;;;;5.03;0.57;;;30.10;44.40;;;;;;4762842;30;20142;-86
2022/07/20 07:54:14;;;;;;;3.10;0.90;;;30.20;44.80;;;;;;4780957;29;20059;-87
2022/07/20 07:56:41;;;;;;;2.25;0.90;;;30.30;44.30;;;;;;4742221;30;20062;-87
2022/07/20 07:59:09;;;;;;;3.80;0.90;;;30.30;45.60;;;;;;4779223;29;20564;-85
2022/07/20 08:01:56;;;;;;;1.85;0.77;;;30.40;46.10;;;;;;4763194;30;20052;-86
2022/07/20 08:04:24;;;;;;;3.30;0.80;;;30.50;45.60;;;;;;4748713;30;20054;-85
2022/07/20 08:06:51;;;;;;;2.65;1.17;;;30.70;45.80;;;;;;4791512;29;20079;-86
2022/07/20 08:09:19;;;;;;;2.70;1.13;;;30.60;43.80;;;;;;4778980;29;20146;-86
2022/07/20 08:11:47;;;;;;;4.57;1.58;;;30.60;45.10;;;;;;4765580;30;20048;-87
2022/07/20 08:14:15;;;;;;;2.95;1.05;;;30.70;46.20;;;;;;4764999;30;20122;-88
2022/07/20 08:16:43;;;;;;;2.83;0.60;;;30.60;44.70;;;;;;4762211;30;20067;-86
2022/07/20 08:19:10;;;;;;;2.25;0.88;;;30.60;42.90;;;;;;4759091;30;20059;-86
2022/07/20 08:21:38;;;;;;;7.78;1.05;;;30.80;44.00;;;;;;4761433;30;20055;-88
2022/07/20 08:24:06;;;;;;;2.45;0.70;;;30.70;43.20;;;;;;4764268;30;20134;-89
2022/07/20 08:26:33;;;;;;;1.42;0.70;;;30.70;43.40;;;;;;4793774;29;20100;-88
2022/07/20 08:29:01;;;;;;;2.45;0.70;;;30.70;43.10;;;;;;4760925;30;20447;-83
2022/07/20 08:31:38;;;;;;;1.83;0.50;;;30.90;43.90;;;;;;4760516;29;20051;-89
2022/07/20 08:34:05;;;;;;;3.75;0.68;;;30.90;41.60;;;;;;4749570;30;20059;-88
2022/07/20 08:36:33;;;;;;;2.63;0.57;;;31.10;43.40;;;;;;4764639;30;20062;-86
2022/07/20 08:39:01;;;;;;;2.90;0.90;;;31.20;44.00;;;;;;4761447;30;20135;-88
2022/07/20 08:41:30;;;;;;;3.30;0.70;;;31.30;43.90;;;;;;4764509;29;20387;-87
2022/07/20 08:43:57;;;;;;;7.38;0.70;;;31.40;43.60;;;;;;4777070;29;20408;-88
2022/07/20 08:46:27;;;;;;;4.95;0.77;;;31.40;44.00;;;;;;4766317;30;20150;-89
2022/07/20 08:48:56;;;;;;;2.80;0.50;;;31.30;43.30;;;;;;4794725;29;20054;-88
2022/07/20 08:51:24;;;;;;;2.97;0.60;;;31.40;43.60;;;;;;4762363;30;20144;-89
2022/07/20 08:53:53;;;;;;;2.22;0.43;;;31.40;42.00;;;;;;4758799;29;20051;-87
2022/07/20 08:56:22;;;;;;;3.25;0.65;;;31.40;42.60;;;;;;4759069;30;20059;-87
2022/07/20 08:58:49;;;;;;;2.58;0.60;;;31.50;41.00;;;;;;4758139;29;20229;-87
2022/07/20 09:01:24;;;;;;;2.95;0.70;;;31.80;42.00;;;;;;4760298;30;20062;-88
2022/07/20 09:04:10;;;;;;;1.15;0.60;;;31.80;43.60;;;;;;4773908;29;20063;-87
2022/07/20 09:06:46;;;;;;;3.60;0.65;;;31.80;42.00;;;;;;4743403;30;20070;-85
2022/07/20 09:09:14;;;;;;;3.67;0.50;;;31.80;41.80;;;;;;4774343;29;20074;-86
2022/07/20 09:11:42;;;;;;;1.38;0.50;;;31.80;42.50;;;;;;4757632;30;20467;-87
2022/07/20 09:14:09;;;;;;;2.47;0.50;;;32.00;42.90;;;;;;4776497;29;20058;-87
2022/07/20 09:16:48;;;;;;;4.82;0.90;;;32.00;43.20;;;;;;4759313;30;20144;-85
2022/07/20 09:19:16;;;;;;;2.22;0.50;;;31.90;41.80;;;;;;4766828;29;20059;-87
2022/07/20 09:21:47;;;;;;;;;;;31.90;42.10;;;;;;4750858;30;20055;-91
2022/07/20 09:24:17;;;;;;;4.47;0.65;;;31.90;41.60;;;;;;4748733;30;20075;-89
2022/07/20 09:26:45;;;;;;;3.28;0.70;;;31.80;42.30;;;;;;4744474;30;20112;-87
2022/07/20 09:29:12;;;;;;;1.45;0.60;;;31.80;43.00;;;;;;4772261;29;20061;-86
2022/07/20 09:31:40;;;;;;;3.22;0.63;;;31.80;41.50;;;;;;4758810;30;20073;-89
2022/07/20 09:34:09;;;;;;;1.65;0.57;;;31.80;41.60;;;;;;4772342;29;20179;-85
2022/07/20 09:36:45;;;;;;;3.05;0.70;;;31.80;42.00;;;;;;4752606;30;20081;-87
2022/07/20 09:39:21;;;;;;;5.13;0.80;;;31.90;42.50;;;;;;4750878;30;20142;-90
2022/07/20 09:41:56;;;;;;;2.38;0.65;;;31.80;41.50;;;;;;4747323;30;20082;-82
2022/07/20 09:44:29;;;;;;;2.15;0.60;;;31.80;40.90;;;;;;4752630;30;20047;-88
2022/07/20 09:46:58;;;;;;;2.38;0.82;;;31.80;41.50;;;;;;4784900;29;20062;-85
2022/07/20 09:49:34;;;;;;;2.67;1.05;;;32.00;42.20;;;;;;4750611;30;20066;-86
2022/07/20 09:52:04;;;;;;;2.67;0.85;;;32.10;42.80;;;;;;4729315;30;20150;-84
2022/07/20 09:54:52;;;;;;;4.85;1.23;;;32.20;42.40;;;;;;4771459;30;20112;-86
2022/07/20 09:57:21;;;;;;;3.88;1.05;;;32.30;43.10;;;;;;4750433;30;20062;-86
2022/07/20 09:59:51;;;;;;;4.82;0.93;;;32.40;42.30;;;;;;4742447;30;20064;-87
2022/07/20 10:02:23;;;;;;;3.72;0.88;;;32.30;41.80;;;;;;4730627;30;20063;-87
2022/07/20 10:04:54;;;;;;;2.38;0.82;;;32.50;41.60;;;;;;4759559;29;20063;-86
2022/07/20 10:07:21;;;;;;;4.70;0.93;;;32.60;42.80;;;;;;4745300;30;20058;-87
2022/07/20 10:09:50;;;;;;;5.70;0.73;;;32.60;42.80;;;;;;4729221;30;20059;-84
2022/07/20 10:12:18;;;;;;;3.40;0.88;;;32.60;42.70;;;;;;4745378;30;20058;-88
2022/07/20 10:14:49;;;;;;;2.35;1.02;;;32.50;41.80;;;;;;4751702;30;20056;-87
2022/07/20 10:17:17;;;;;;;2.60;0.85;;;32.40;41.50;;;;;;4746943;30;20086;-87
2022/07/20 10:19:46;;;;;;;5.18;0.93;;;32.40;41.80;;;;;;4734720;30;20055;-90
2022/07/20 10:22:15;;;;;;;3.08;0.70;;;32.40;40.40;;;;;;4758418;30;20178;-87
2022/07/20 10:24:47;;;;;;;4.88;1.10;;;32.30;40.30;;;;;;4753964;30;20050;-85
2022/07/20 10:27:15;;;;;;;4.45;0.60;;;32.30;41.80;;;;;;4756193;30;20097;-84
2022/07/20 10:29:46;;;;;;;3.67;0.80;;;32.30;40.30;;;;;;4765106;29;20063;-84
2022/07/20 10:32:16;;;;;;;5.60;0.70;;;32.30;40.50;;;;;;4752013;29;20428;-84
2022/07/20 10:34:50;;;;;;;2.15;0.50;;;32.30;40.80;;;;;;4756072;29;20059;-83
2022/07/20 10:37:23;;;;;;;2.35;0.50;;;32.30;41.30;;;;;;4762042;29;20059;-85
2022/07/20 10:39:51;;;;;;;3.53;0.65;;;32.50;41.60;;;;;;4759250;29;20572;-85
2022/07/20 10:42:22;;;;;;;2.95;0.70;;;32.50;40.80;;;;;;4760562;29;20064;-83
2022/07/20 10:44:51;;;;;;;2.15;0.40;;;32.40;40.60;;;;;;4762974;29;20071;-86
2022/07/20 10:47:42;;;;;;;3.28;0.60;;;32.40;39.40;;;;;;4741972;29;20186;-82
2022/07/20 10:50:20;;;;;;;4.88;0.55;;;32.30;39.00;;;;;;4727218;29;20063;-80
2022/07/20 10:52:50;;;;;;;3.58;0.70;;;32.40;39.80;;;;;;4736849;30;20047;-83
2022/07/20 10:55:33;;;;;;;2.67;0.60;;;32.60;41.00;;;;;;4749089;30;20065;-83
2022/07/20 10:58:09;;;;;;;2.25;0.90;;;32.70;40.20;;;;;;4742288;30;20067;-86
2022/07/20 11:00:42;;;;;;;2.75;0.63;;;32.80;40.20;;;;;;4736157;30;20902;-86
2022/07/20 11:03:27;;;;;;;1.30;0.65;;;32.80;39.20;;;;;;4753096;29;20151;-85
2022/07/20 11:06:16;;;;;;;2.33;0.50;;;32.70;39.90;;;;;;4766774;30;20451;-83
2022/07/20 11:08:51;;;;;;;7.90;0.68;;;32.70;40.10;;;;;;4729080;30;20517;-83
2022/07/20 11:11:23;;;;;;;1.27;0.60;;;32.70;40.20;;;;;;4755226;30;20059;-83
2022/07/20 11:13:50;;;;;;;1.77;0.90;;;32.50;38.70;;;;;;4755920;29;20055;-82
2022/07/20 11:16:23;;;;;;;3.25;0.60;;;32.40;38.70;;;;;;4740630;30;20059;-83
2022/07/20 11:18:52;;;;;;;1.48;0.43;;;32.40;40.10;;;;;;4734902;30;20132;-82
2022/07/20 11:21:32;;;;;;;8.07;1.00;;;32.40;38.70;;;;;;4746194;29;20059;-85
2022/07/20 11:24:05;;;;;;;2.80;0.85;;;32.40;39.80;;;;;;4756560;29;20201;-83
2022/07/20 11:26:32;;;;;;;1.40;0.65;;;32.60;41.10;;;;;;4743030;29;20138;-82
2022/07/20 11:29:00;;;;;;;2.80;1.15;;;32.70;40.20;;;;;;4735146;30;20143;-82
2022/07/20 11:31:29;;;;;;;1.65;0.60;;;32.90;40.40;;;;;;4758749;29;20112;-83
2022/07/20 11:33:59;;;;;;;1.10;0.55;;;32.90;40.20;;;;;;4747194;30;20101;-82
2022/07/20 11:36:34;;;;;;;3.75;0.70;;;32.90;39.10;;;;;;4759865;29;20181;-83
2022/07/20 11:39:06;;;;;;;1.48;0.57;;;32.90;40.20;;;;;;4729416;30;20193;-83
2022/07/20 11:41:42;;;;;;;2.03;0.40;;;32.90;38.50;;;;;;4749332;30;20066;-84
2022/07/20 11:44:18;;;;;;;1.52;0.43;;;32.80;38.90;;;;;;4729002;30;20079;-85
2022/07/20 11:46:48;;;;;;;2.80;0.45;;;32.80;39.60;;;;;;4749830;29;20112;-86
2022/07/20 11:49:17;;;;;;;3.13;0.70;;;32.90;39.50;;;;;;4750676;30;20060;-85
2022/07/20 11:52:01;;;;;;;1.77;0.77;;;33.00;38.30;;;;;;4774764;29;20170;-82
2022/07/20 11:54:35;;;;;;;2.47;0.80;;;33.00;39.20;;;;;;4753822;30;20062;-84
2022/07/20 11:57:05;;;;;;;2.15;0.70;;;33.10;38.80;;;;;;4749328;30;20069;-83
2022/07/20 11:59:33;;;;;;;4.65;0.70;;;33.00;39.10;;;;;;4746948;29;20058;-82
2022/07/20 12:02:02;;;;;;;1.75;0.60;;;32.90;38.90;;;;;;4753513;30;20540;-86
2022/07/20 12:04:35;;;;;;;3.27;0.77;;;32.80;38.80;;;;;;4736933;30;20098;-79
2022/07/20 12:08:07;;;;;;;;;;;32.90;39.20;;;;;;4747916;30;20056;-83
2022/07/20 12:09:50;;;;;;;1.00;0.60;;;33.00;39.70;;;;;;4744629;29;19934;-83
2022/07/20 12:12:44;;;;;;;1.95;0.80;;;33.00;39.90;;;;;;4771071;29;20089;-82
2022/07/20 12:15:12;;;;;;;1.88;0.70;;;32.90;39.50;;;;;;4748989;30;20109;-81
2022/07/20 12:17:52;;;;;;;3.67;0.65;;;32.90;40.00;;;;;;4745153;30;20059;-83
2022/07/20 12:20:25;;;;;;;1.63;0.90;;;33.00;39.50;;;;;;4756324;30;20059;-83
2022/07/20 12:23:04;;;;;;;1.38;0.70;;;32.90;39.50;;;;;;4763486;29;20200;-84
2022/07/20 12:25:43;;;;;;;2.70;0.50;;;33.10;39.60;;;;;;4755458;30;20196;-82
2022/07/20 12:28:10;;;;;;;1.13;0.75;;;33.20;40.60;;;;;;4765558;29;20055;-83
2022/07/20 12:31:16;;;;;;;4.13;0.90;;;33.20;39.20;;;;;;4751952;29;20069;-82
2022/07/20 12:34:19;;;;;;;4.38;1.15;;;33.20;39.80;;;;;;4752773;30;20051;-82
2022/07/20 12:36:48;;;;;;;2.90;1.42;;;33.30;39.50;;;;;;4657366;30;20071;-85
2022/07/20 12:39:47;;;;;;;4.15;1.02;;;33.20;37.80;;;;;;4745277;29;20516;-85
2022/07/20 12:42:19;;;;;;;5.93;0.98;;;33.20;38.70;;;;;;4754651;30;20055;-82
2022/07/20 12:45:04;;;;;;;2.95;1.15;;;33.30;40.00;;;;;;4775553;29;20063;-83
2022/07/20 12:47:32;;;;;;;2.87;0.97;;;33.40;40.60;;;;;;4759432;29;20716;-80
2022/07/20 12:50:19;;;;;;;5.90;0.82;;;33.50;39.10;;;;;;4739982;29;20050;-80
2022/07/20 12:52:46;;;;;;;4.38;1.15;;;33.40;38.50;;;;;;4750733;30;20071;-82
2022/07/20 12:55:14;;;;;;;2.88;0.98;;;33.40;39.20;;;;;;4777350;29;20090;-83
2022/07/20 12:57:42;;;;;;;5.88;0.90;;;33.40;38.00;;;;;;4749180;30;20054;-82
2022/07/20 13:00:10;;;;;;;5.95;1.30;;;33.40;39.00;;;;;;4775962;29;20059;-83
2022/07/20 13:02:37;;;;;;;1.92;0.88;;;33.40;38.70;;;;;;4750175;30;20066;-82